createdAt,value
2019-05-11T00:00:32.111Z,101031.12
2019-05-11T00:03:38.516Z,101031.12
2019-05-11T00:06:45.140Z,101018.56
2019-05-11T00:09:57.997Z,101030.02
2019-05-11T00:13:02.763Z,101033.20
2019-05-11T00:16:09.054Z,101040.56
2019-05-11T00:19:15.511Z,101038.59
2019-05-11T00:22:21.885Z,101045.00
2019-05-11T00:25:28.365Z,101046.09
2019-05-11T00:28:35.010Z,101044.34
2019-05-11T00:31:41.762Z,101042.41
2019-05-11T00:34:48.065Z,101057.14
2019-05-11T00:37:54.518Z,101055.41
2019-05-11T00:41:00.814Z,101052.23
2019-05-11T00:44:07.290Z,101049.61
2019-05-11T00:47:13.740Z,101048.80
2019-05-11T00:50:20.774Z,101061.55
2019-05-11T00:53:27.423Z,101059.57
2019-05-11T00:56:33.947Z,101052.03
2019-05-11T00:59:40.242Z,101064.33
2019-05-11T01:02:46.697Z,101065.25
2019-05-11T01:05:53.054Z,101064.44
2019-05-11T01:08:59.666Z,101072.17
2019-05-11T01:12:06.035Z,101074.23
2019-05-11T01:15:12.573Z,101072.17
2019-05-11T01:18:18.983Z,101068.73
2019-05-11T01:21:25.338Z,101073.39
2019-05-11T01:24:31.636Z,101079.03
2019-05-11T01:27:38.366Z,101086.91
2019-05-11T01:30:45.083Z,101109.96
2019-05-11T01:33:51.436Z,101106.84
2019-05-11T01:36:57.740Z,101108.75
2019-05-11T01:40:04.290Z,101122.56
2019-05-11T01:43:10.636Z,101117.19
2019-05-11T01:46:17.389Z,101109.25
2019-05-11T01:49:23.758Z,101110.80
2019-05-11T01:52:30.199Z,101107.82
2019-05-11T01:55:36.764Z,101108.69
2019-05-11T01:58:43.177Z,101119.58
2019-05-11T02:01:49.647Z,101120.29
2019-05-11T02:05:15.159Z,101120.29
2019-05-11T02:08:21.526Z,101129.02
2019-05-11T02:11:27.794Z,101134.68
2019-05-11T02:14:34.163Z,101134.68
2019-05-11T02:17:40.689Z,101141.60
2019-05-11T02:20:47.203Z,101144.36
2019-05-11T02:23:53.698Z,101144.68
2019-05-11T02:26:59.975Z,101159.42
2019-05-11T02:30:07.451Z,101155.84
2019-05-11T02:33:14.035Z,101169.47
2019-05-11T02:36:20.288Z,101169.59
2019-05-11T02:39:26.758Z,101167.14
2019-05-11T02:42:33.236Z,101168.78
2019-05-11T02:45:41.320Z,101168.78
2019-05-11T02:48:47.896Z,101176.50
2019-05-11T02:51:54.156Z,101176.16
2019-05-11T02:55:01.244Z,101176.55
2019-05-11T02:58:08.149Z,101183.94
2019-05-11T03:01:14.544Z,101178.88
2019-05-11T03:04:20.876Z,101182.59
2019-05-11T03:07:28.267Z,101187.00
2019-05-11T03:10:34.602Z,101198.47
2019-05-11T03:13:41.491Z,101201.53
2019-05-11T03:16:51.017Z,101204.20
2019-05-11T03:19:57.504Z,101194.41
2019-05-11T03:23:04.930Z,101203.11
2019-05-11T03:26:11.496Z,101210.37
2019-05-11T03:29:17.926Z,101202.64
2019-05-11T03:32:24.446Z,101205.55
2019-05-11T03:35:31.007Z,101215.56
2019-05-11T03:38:37.486Z,101210.27
2019-05-11T03:41:43.868Z,101210.51
2019-05-11T03:44:50.291Z,101218.44
2019-05-11T03:47:56.744Z,101214.95
2019-05-11T03:51:03.145Z,101211.88
2019-05-11T03:54:09.516Z,101224.78
2019-05-11T03:57:15.968Z,101224.47
2019-05-11T04:00:22.596Z,101220.80
2019-05-11T04:03:28.935Z,101219.64
2019-05-11T04:06:35.395Z,101213.72
2019-05-11T04:09:41.857Z,101216.37
2019-05-11T04:12:48.115Z,101228.96
2019-05-11T04:15:54.525Z,101233.41
2019-05-11T04:19:00.919Z,101236.74
2019-05-11T04:22:07.211Z,101234.19
2019-05-11T04:25:13.553Z,101233.99
2019-05-11T04:28:19.943Z,101245.91
2019-05-11T04:31:26.292Z,101243.16
2019-05-11T04:34:32.884Z,101251.91
2019-05-11T04:37:40.043Z,101251.75
2019-05-11T04:40:46.534Z,101253.92
2019-05-11T04:43:52.885Z,101243.05
2019-05-11T04:46:59.747Z,101246.11
2019-05-11T04:50:06.552Z,101248.16
2019-05-11T04:53:13.075Z,101245.36
2019-05-11T04:56:19.474Z,101254.09
2019-05-11T04:59:25.951Z,101250.29
2019-05-11T05:02:32.551Z,101248.22
2019-05-11T05:05:38.842Z,101255.55
2019-05-11T05:08:47.251Z,101258.25
2019-05-11T05:11:54.003Z,101251.12
2019-05-11T05:15:00.329Z,101246.70
2019-05-11T05:18:06.801Z,101243.93
2019-05-11T05:21:13.145Z,101233.73
2019-05-11T05:24:19.617Z,101231.31
2019-05-11T05:27:25.888Z,101228.19
2019-05-11T05:30:32.473Z,101221.04
2019-05-11T05:33:38.863Z,101217.94
2019-05-11T05:36:48.323Z,101212.53
2019-05-11T05:39:56.000Z,101213.58
2019-05-11T05:43:02.339Z,101222.59
2019-05-11T05:46:08.847Z,101211.84
2019-05-11T05:49:15.379Z,101204.95
2019-05-11T05:52:21.758Z,101217.77
2019-05-11T05:55:28.218Z,101208.53
2019-05-11T05:58:34.677Z,101202.49
2019-05-11T06:01:41.202Z,101198.34
2019-05-11T06:04:47.998Z,101201.64
2019-05-11T06:07:57.707Z,101202.61
2019-05-11T06:11:04.116Z,101197.45
2019-05-11T06:14:11.223Z,101209.48
2019-05-11T06:17:17.653Z,101209.10
2019-05-11T06:20:24.024Z,101214.72
2019-05-11T06:23:30.397Z,101215.70
2019-05-11T06:26:37.112Z,101223.73
2019-05-11T06:29:43.474Z,101224.70
2019-05-11T06:32:49.920Z,101235.62
2019-05-11T06:35:56.410Z,101232.05
2019-05-11T06:39:04.210Z,101235.61
2019-05-11T06:42:12.229Z,101229.05
2019-05-11T06:45:20.416Z,101225.89
2019-05-11T06:48:26.812Z,101232.75
2019-05-11T06:51:33.260Z,101223.63
2019-05-11T06:54:39.575Z,101225.11
2019-05-11T06:57:46.071Z,101227.31
2019-05-11T07:00:52.326Z,101225.34
2019-05-11T07:03:59.122Z,101232.97
2019-05-11T07:07:05.670Z,101233.33
2019-05-11T07:10:12.156Z,101234.77
2019-05-11T07:13:18.493Z,101229.34
2019-05-11T07:16:24.806Z,101217.89
2019-05-11T07:19:31.085Z,101232.83
2019-05-11T07:22:37.765Z,101230.95
2019-05-11T07:25:44.223Z,101233.50
2019-05-11T07:28:51.879Z,101229.64
2019-05-11T07:32:05.567Z,101238.08
2019-05-11T07:35:08.438Z,101233.85
2019-05-11T07:38:14.271Z,101214.70
2019-05-11T07:41:20.956Z,101216.69
2019-05-11T07:44:35.879Z,101213.84
2019-05-11T07:47:37.900Z,101208.92
2019-05-11T07:50:43.862Z,101211.63
2019-05-11T07:53:50.375Z,101219.36
2019-05-11T07:56:58.394Z,101220.78
2019-05-11T08:00:05.282Z,101222.23
2019-05-11T08:03:12.584Z,101204.45
2019-05-11T08:06:18.992Z,101203.83
2019-05-11T08:09:27.630Z,101211.88
2019-05-11T08:12:33.471Z,101205.50
2019-05-11T08:15:39.799Z,101200.47
2019-05-11T08:18:48.123Z,101210.70
2019-05-11T08:21:54.433Z,101207.22
2019-05-11T08:25:00.773Z,101198.42
2019-05-11T08:28:11.796Z,101210.83
2019-05-11T08:31:15.192Z,101219.45
2019-05-11T08:34:21.552Z,101213.35
2019-05-11T08:37:28.502Z,101218.91
2019-05-11T08:40:34.896Z,101220.75
2019-05-11T08:43:41.354Z,101220.00
2019-05-11T08:46:48.199Z,101214.41
2019-05-11T08:49:54.526Z,101215.08
2019-05-11T08:53:01.000Z,101217.14
2019-05-11T08:56:11.085Z,101215.11
2019-05-11T08:59:15.711Z,101201.05
2019-05-11T09:02:22.195Z,101212.17
2019-05-11T09:05:28.762Z,101212.02
2019-05-11T09:08:35.380Z,101207.84
2019-05-11T09:11:41.841Z,101209.84
2019-05-11T09:14:48.578Z,101210.84
2019-05-11T09:17:55.083Z,101214.13
2019-05-11T09:21:01.764Z,101223.08
2019-05-11T09:24:08.628Z,101218.38
2019-05-11T09:27:15.098Z,101216.31
2019-05-11T09:30:21.525Z,101221.31
2019-05-11T09:33:28.396Z,101222.74
2019-05-11T09:36:34.980Z,101221.59
2019-05-11T09:39:41.474Z,101231.16
2019-05-11T09:42:48.059Z,101230.69
2019-05-11T09:45:54.796Z,101218.57
2019-05-11T09:49:01.418Z,101213.19
2019-05-11T09:52:08.057Z,101205.63
2019-05-11T09:55:14.447Z,101219.38
2019-05-11T09:58:21.142Z,101207.77
2019-05-11T10:01:29.614Z,101204.42
2019-05-11T10:04:37.914Z,101207.44
2019-05-11T10:07:44.050Z,101193.91
2019-05-11T10:10:50.587Z,101195.63
2019-05-11T10:13:57.784Z,101194.25
2019-05-11T10:17:04.452Z,101195.86
2019-05-11T10:20:11.287Z,101194.55
2019-05-11T10:23:18.698Z,101180.22
2019-05-11T10:26:25.199Z,101198.25
2019-05-11T10:29:33.896Z,101198.80
2019-05-11T10:32:40.919Z,101189.45
2019-05-11T10:35:48.349Z,101199.85
2019-05-11T10:38:54.968Z,101199.85
2019-05-11T10:42:01.721Z,101196.66
2019-05-11T10:45:09.201Z,101203.53
2019-05-11T10:48:17.739Z,101197.32
2019-05-11T10:51:24.391Z,101196.21
2019-05-11T10:54:30.897Z,101198.75
2019-05-11T10:57:38.629Z,101194.08
2019-05-11T11:00:47.930Z,101200.74
2019-05-11T11:03:53.711Z,101194.58
2019-05-11T11:07:00.269Z,101194.61
2019-05-11T11:10:08.907Z,101194.73
2019-05-11T11:13:15.300Z,101195.19
2019-05-11T11:16:35.798Z,101197.75
2019-05-11T11:19:30.320Z,101195.06
2019-05-11T11:22:41.313Z,101197.49
2019-05-11T11:25:45.001Z,101195.49
2019-05-11T11:28:51.770Z,101196.75
2019-05-11T11:31:58.814Z,101182.58
2019-05-11T11:35:05.472Z,101199.97
2019-05-11T11:38:11.986Z,101204.51
2019-05-11T11:41:18.880Z,101208.52
2019-05-11T11:44:25.371Z,101208.92
2019-05-11T11:47:31.723Z,101209.14
2019-05-11T11:50:38.251Z,101209.76
2019-05-11T11:53:44.729Z,101203.16
2019-05-11T11:56:51.260Z,101194.29
2019-05-11T11:59:58.705Z,101202.84
2019-05-11T12:03:07.859Z,101190.04
2019-05-11T12:06:13.780Z,101190.04
2019-05-11T12:09:20.359Z,101201.46
2019-05-11T12:12:27.881Z,101197.19
2019-05-11T12:15:35.662Z,101204.00
2019-05-11T12:18:42.306Z,101203.44
2019-05-11T12:21:49.693Z,101203.80
2019-05-11T12:24:58.751Z,101208.52
2019-05-11T12:28:04.507Z,101203.80
2019-05-11T12:31:10.880Z,101201.84
2019-05-11T12:34:17.879Z,101189.33
2019-05-11T12:37:24.502Z,101208.02
2019-05-11T12:40:30.941Z,101206.56
2019-05-11T12:43:38.233Z,101208.83
2019-05-11T12:46:44.746Z,101220.34
2019-05-11T12:49:51.088Z,101222.79
2019-05-11T12:52:58.835Z,101209.20
2019-05-11T12:56:07.970Z,101212.77
2019-05-11T12:59:13.683Z,101211.39
2019-05-11T13:02:20.346Z,101212.13
2019-05-11T13:05:28.510Z,101215.17
2019-05-11T13:08:35.177Z,101215.17
2019-05-11T13:11:41.530Z,101219.50
2019-05-11T13:14:48.868Z,101215.27
2019-05-11T13:17:57.945Z,101211.41
2019-05-11T13:21:03.832Z,101217.41
2019-05-11T13:24:10.216Z,101212.06
2019-05-11T13:27:17.851Z,101213.91
2019-05-11T13:30:24.625Z,101227.94
2019-05-11T13:33:31.008Z,101221.59
2019-05-11T13:36:38.201Z,101237.70
2019-05-11T13:39:44.732Z,101236.06
2019-05-11T13:42:51.369Z,101222.73
2019-05-11T13:45:58.438Z,101236.63
2019-05-11T13:49:08.387Z,101236.63
2019-05-11T13:52:14.179Z,101237.42
2019-05-11T13:55:20.656Z,101236.41
2019-05-11T13:58:27.772Z,101242.11
2019-05-11T14:01:34.339Z,101239.47
2019-05-11T14:04:40.796Z,101236.03
2019-05-11T14:07:48.271Z,101234.20
2019-05-11T14:10:57.952Z,101226.14
2019-05-11T14:14:04.246Z,101223.22
2019-05-11T14:17:10.688Z,101226.87
2019-05-11T14:20:18.940Z,101226.87
2019-05-11T14:23:28.357Z,101238.02
2019-05-11T14:26:33.810Z,101228.86
2019-05-11T14:29:40.095Z,101237.37
2019-05-11T14:32:47.810Z,101228.16
2019-05-11T14:35:54.436Z,101229.20
2019-05-11T14:39:00.757Z,101228.84
2019-05-11T14:42:07.685Z,101231.14
2019-05-11T14:45:14.352Z,101235.40
2019-05-11T14:48:26.253Z,101239.83
2019-05-11T14:51:28.816Z,101239.83
2019-05-11T14:54:35.223Z,101239.93
2019-05-11T14:57:41.782Z,101236.86
2019-05-11T15:00:49.561Z,101229.39
2019-05-11T15:03:58.723Z,101242.50
2019-05-11T15:07:04.487Z,101239.16
2019-05-11T15:10:11.213Z,101248.13
2019-05-11T15:13:18.563Z,101241.58
2019-05-11T15:16:25.143Z,101248.50
2019-05-11T15:19:31.566Z,101240.40
2019-05-11T15:22:38.519Z,101240.05
2019-05-11T15:25:45.207Z,101252.88
2019-05-11T15:28:51.572Z,101251.36
2019-05-11T15:31:58.066Z,101262.21
2019-05-11T15:35:04.458Z,101262.25
2019-05-11T15:38:11.091Z,101270.63
2019-05-11T15:41:17.884Z,101263.91
2019-05-11T15:44:24.290Z,101268.34
2019-05-11T15:47:31.630Z,101279.32
2019-05-11T15:50:40.209Z,101282.01
2019-05-11T15:53:47.613Z,101289.08
2019-05-11T15:56:55.034Z,101302.67
2019-05-11T16:00:01.460Z,101308.20
2019-05-11T16:03:08.287Z,101303.95
2019-05-11T16:06:14.784Z,101306.70
2019-05-11T16:09:21.115Z,101306.70
2019-05-11T16:12:28.775Z,101312.05
2019-05-11T16:15:38.207Z,101302.39
2019-05-11T16:18:44.259Z,101312.44
2019-05-11T16:21:50.629Z,101309.17
2019-05-11T16:24:58.031Z,101311.02
2019-05-11T16:28:04.852Z,101310.45
2019-05-11T16:31:11.206Z,101322.16
2019-05-11T16:34:18.427Z,101332.25
2019-05-11T16:37:24.899Z,101332.25
2019-05-11T16:40:31.214Z,101325.39
2019-05-11T16:43:38.504Z,101315.33
2019-05-11T16:46:45.190Z,101319.56
2019-05-11T16:49:53.436Z,101316.65
2019-05-11T16:53:00.272Z,101325.80
2019-05-11T16:56:08.387Z,101322.83
2019-05-11T16:59:14.986Z,101327.17
2019-05-11T17:02:21.313Z,101329.77
2019-05-11T17:05:33.477Z,101325.37
2019-05-11T17:08:38.152Z,101329.05
2019-05-11T17:11:44.553Z,101330.95
2019-05-11T17:15:01.026Z,101329.36
2019-05-11T17:18:08.085Z,101332.13
2019-05-11T17:21:14.535Z,101328.53
2019-05-11T17:24:20.887Z,101318.16
2019-05-11T17:27:28.538Z,101316.70
2019-05-11T17:30:38.673Z,101322.16
2019-05-11T17:33:47.653Z,101321.79
2019-05-11T17:36:57.090Z,101320.84
2019-05-11T17:40:02.497Z,101319.11
2019-05-11T17:43:09.217Z,101322.58
2019-05-11T17:46:18.246Z,101326.13
2019-05-11T17:49:23.864Z,101326.03
2019-05-11T17:52:30.502Z,101334.34
2019-05-11T17:55:38.289Z,101328.44
2019-05-11T17:58:44.962Z,101329.28
2019-05-11T18:01:51.303Z,101320.22
2019-05-11T18:04:58.460Z,101331.17
2019-05-11T18:08:05.026Z,101339.67
2019-05-11T18:11:11.407Z,101347.88
2019-05-11T18:14:17.785Z,101337.26
2019-05-11T18:17:25.234Z,101345.37
2019-05-11T18:20:31.575Z,101338.63
2019-05-11T18:23:38.751Z,101344.48
2019-05-11T18:26:45.280Z,101342.73
2019-05-11T18:29:52.187Z,101351.65
2019-05-11T18:32:59.502Z,101355.42
2019-05-11T18:36:08.047Z,101356.47
2019-05-11T18:39:14.240Z,101353.06
2019-05-11T18:42:20.707Z,101353.06
2019-05-11T18:45:28.783Z,101358.47
2019-05-11T18:48:35.278Z,101361.06
2019-05-11T18:51:41.653Z,101371.89
2019-05-11T18:54:48.210Z,101380.19
2019-05-11T18:57:54.583Z,101382.48
2019-05-11T19:01:01.178Z,101388.70
2019-05-11T19:04:08.909Z,101388.27
2019-05-11T19:07:17.195Z,101387.22
2019-05-11T19:10:23.932Z,101387.94
2019-05-11T19:13:30.292Z,101383.75
2019-05-11T19:16:38.781Z,101390.67
2019-05-11T19:19:44.865Z,101382.27
2019-05-11T19:22:51.772Z,101382.27
2019-05-11T19:25:58.960Z,101384.15
2019-05-11T19:29:05.297Z,101383.41
2019-05-11T19:32:11.677Z,101381.41
2019-05-11T19:35:21.291Z,101375.92
2019-05-11T19:38:28.003Z,101379.94
2019-05-11T19:41:34.773Z,101376.97
2019-05-11T19:44:41.270Z,101373.20
2019-05-11T19:47:48.416Z,101377.62
2019-05-11T19:51:06.701Z,101380.54
2019-05-11T19:54:03.816Z,101378.85
2019-05-11T19:57:10.315Z,101372.43
2019-05-11T20:00:18.592Z,101380.14
2019-05-11T20:03:25.125Z,101382.65
2019-05-11T20:06:31.506Z,101375.34
2019-05-11T20:09:38.705Z,101376.86
2019-05-11T20:12:48.358Z,101377.16
2019-05-11T20:15:54.377Z,101370.14
2019-05-11T20:19:01.003Z,101373.98
2019-05-11T20:22:07.500Z,101383.64
2019-05-11T20:25:18.585Z,101372.09
2019-05-11T20:28:25.142Z,101375.05
2019-05-11T20:31:31.516Z,101381.55
2019-05-11T20:34:38.233Z,101377.41
2019-05-11T20:37:44.739Z,101374.34
2019-05-11T20:40:51.127Z,101389.02
2019-05-11T20:43:58.072Z,101383.56
2019-05-11T20:47:04.864Z,101391.80
2019-05-11T20:50:11.332Z,101397.94
2019-05-11T20:53:18.220Z,101386.46
2019-05-11T20:56:24.826Z,101405.12
2019-05-11T20:59:31.304Z,101394.09
2019-05-11T21:02:38.220Z,101400.64
2019-05-11T21:05:44.794Z,101397.74
2019-05-11T21:08:51.195Z,101404.16
2019-05-11T21:11:59.191Z,101401.19
2019-05-11T21:15:07.725Z,101407.52
2019-05-11T21:18:14.135Z,101408.11
2019-05-11T21:21:20.463Z,101404.16
2019-05-11T21:24:28.078Z,101416.13
2019-05-11T21:27:34.495Z,101409.38
2019-05-11T21:30:40.878Z,101407.28
2019-05-11T21:33:47.291Z,101406.88
2019-05-11T21:36:53.768Z,101411.78
2019-05-11T21:40:00.241Z,101423.33
2019-05-11T21:43:08.951Z,101414.43
2019-05-11T21:46:17.864Z,101428.24
2019-05-11T21:49:24.409Z,101423.33
2019-05-11T21:52:30.739Z,101425.63
2019-05-11T21:55:37.792Z,101433.03
2019-05-11T21:58:44.307Z,101424.05
2019-05-11T22:01:51.011Z,101438.33
2019-05-11T22:04:58.628Z,101440.55
2019-05-11T22:08:05.137Z,101444.25
2019-05-11T22:11:13.995Z,101442.27
2019-05-11T22:14:19.827Z,101453.27
2019-05-11T22:17:27.916Z,101449.31
2019-05-11T22:20:34.593Z,101453.80
2019-05-11T22:23:40.953Z,101446.23
2019-05-11T22:26:47.708Z,101451.08
2019-05-11T22:29:54.044Z,101451.08
2019-05-11T22:33:00.313Z,101452.77
2019-05-11T22:36:06.790Z,101459.27
2019-05-11T22:39:13.338Z,101461.02
2019-05-11T22:42:19.902Z,101471.64
2019-05-11T22:45:27.786Z,101479.33
2019-05-11T22:48:34.288Z,101478.36
2019-05-11T22:51:40.659Z,101475.21
2019-05-11T22:54:48.484Z,101469.30
2019-05-11T22:57:54.781Z,101482.73
2019-05-11T23:01:01.031Z,101470.77
2019-05-11T23:04:07.755Z,101476.28
2019-05-11T23:07:14.221Z,101476.28
2019-05-11T23:10:20.567Z,101484.86
2019-05-11T23:13:27.905Z,101477.86
2019-05-11T23:16:34.527Z,101479.67
2019-05-11T23:19:41.608Z,101485.55
2019-05-11T23:22:56.868Z,101478.77
2019-05-11T23:25:57.953Z,101478.77
2019-05-11T23:29:08.035Z,101485.36
2019-05-11T23:32:13.857Z,101488.20
2019-05-11T23:35:20.458Z,101483.44
2019-05-11T23:38:28.197Z,101494.34
2019-05-11T23:41:34.918Z,101487.66
2019-05-11T23:44:41.479Z,101487.53
2019-05-11T23:47:48.913Z,101486.77
2019-05-11T23:50:57.906Z,101490.14
2019-05-11T23:54:03.776Z,101495.25
2019-05-11T23:57:10.048Z,101497.21
